sensor_id;sensor_type;location;lat;lon;timestamp;pressure;altitude;pressure_sealevel;temperature;humidity
59877;BME280;45749;51.140;17.184;2023-05-23T00:00:34;99895.19;;;14.69;67.53
59877;BME280;45749;51.140;17.184;2023-05-23T00:03:00;99896.19;;;14.68;67.54
59877;BME280;45749;51.140;17.184;2023-05-23T00:05:26;99891.59;;;14.60;67.76
59877;BME280;45749;51.140;17.184;2023-05-23T00:07:53;99892.19;;;14.54;67.78
59877;BME280;45749;51.140;17.184;2023-05-23T00:10:18;99887.28;;;14.49;67.95
59877;BME280;45749;51.140;17.184;2023-05-23T00:12:44;99888.88;;;14.42;68.01
59877;BME280;45749;51.140;17.184;2023-05-23T00:15:12;99890.00;;;14.40;67.89
59877;BME280;45749;51.140;17.184;2023-05-23T00:17:38;99888.63;;;14.36;68.31
59877;BME280;45749;51.140;17.184;2023-05-23T00:20:04;99891.09;;;14.37;68.38
59877;BME280;45749;51.140;17.184;2023-05-23T00:22:29;99892.94;;;14.37;68.53
59877;BME280;45749;51.140;17.184;2023-05-23T00:24:55;99891.41;;;14.34;68.68
59877;BME280;45749;51.140;17.184;2023-05-23T00:27:22;99881.22;;;14.29;68.83
59877;BME280;45749;51.140;17.184;2023-05-23T00:29:47;99878.72;;;14.28;68.82
59877;BME280;45749;51.140;17.184;2023-05-23T00:32:12;99892.13;;;14.26;68.75
59877;BME280;45749;51.140;17.184;2023-05-23T00:34:38;99882.81;;;14.22;68.72
59877;BME280;45749;51.140;17.184;2023-05-23T00:37:03;99885.88;;;14.18;69.17
59877;BME280;45749;51.140;17.184;2023-05-23T00:39:29;99881.84;;;14.14;69.14
59877;BME280;45749;51.140;17.184;2023-05-23T00:41:54;99881.19;;;14.12;69.41
59877;BME280;45749;51.140;17.184;2023-05-23T00:44:20;99884.94;;;14.09;69.20
59877;BME280;45749;51.140;17.184;2023-05-23T00:46:51;99878.69;;;14.00;69.46
59877;BME280;45749;51.140;17.184;2023-05-23T00:49:17;99877.31;;;13.96;69.80
59877;BME280;45749;51.140;17.184;2023-05-23T00:51:46;99871.56;;;13.91;70.05
59877;BME280;45749;51.140;17.184;2023-05-23T00:54:15;99868.38;;;13.88;70.15
59877;BME280;45749;51.140;17.184;2023-05-23T00:56:42;99861.84;;;13.82;70.00
59877;BME280;45749;51.140;17.184;2023-05-23T00:59:08;99861.97;;;13.80;70.28
59877;BME280;45749;51.140;17.184;2023-05-23T01:01:33;99855.88;;;13.70;70.56
59877;BME280;45749;51.140;17.184;2023-05-23T01:04:02;99861.28;;;13.69;70.43
59877;BME280;45749;51.140;17.184;2023-05-23T01:06:28;99863.38;;;13.75;70.39
59877;BME280;45749;51.140;17.184;2023-05-23T01:08:54;99864.09;;;13.77;70.41
59877;BME280;45749;51.140;17.184;2023-05-23T01:11:26;99862.13;;;13.79;70.67
59877;BME280;45749;51.140;17.184;2023-05-23T01:14:00;99862.13;;;13.79;70.32
59877;BME280;45749;51.140;17.184;2023-05-23T01:16:37;99861.72;;;13.74;70.72
59877;BME280;45749;51.140;17.184;2023-05-23T01:21:59;99868.41;;;13.68;70.48
59877;BME280;45749;51.140;17.184;2023-05-23T01:24:51;99853.94;;;13.63;70.86
59877;BME280;45749;51.140;17.184;2023-05-23T01:27:43;99854.50;;;13.56;71.00
59877;BME280;45749;51.140;17.184;2023-05-23T01:30:11;99856.44;;;13.54;71.28
59877;BME280;45749;51.140;17.184;2023-05-23T01:32:38;99858.72;;;13.49;71.13
59877;BME280;45749;51.140;17.184;2023-05-23T01:35:04;99860.66;;;13.47;71.43
59877;BME280;45749;51.140;17.184;2023-05-23T01:37:30;99862.59;;;13.45;71.96
59877;BME280;45749;51.140;17.184;2023-05-23T01:39:55;99856.91;;;13.40;71.66
59877;BME280;45749;51.140;17.184;2023-05-23T01:42:20;99853.41;;;13.40;71.99
59877;BME280;45749;51.140;17.184;2023-05-23T01:44:46;99852.69;;;13.37;72.02
59877;BME280;45749;51.140;17.184;2023-05-23T01:47:12;99846.56;;;13.37;72.33
59877;BME280;45749;51.140;17.184;2023-05-23T01:49:40;99841.41;;;13.35;72.08
59877;BME280;45749;51.140;17.184;2023-05-23T01:52:07;99843.22;;;13.35;72.01
59877;BME280;45749;51.140;17.184;2023-05-23T01:54:35;99848.94;;;13.40;72.21
59877;BME280;45749;51.140;17.184;2023-05-23T01:57:01;99840.44;;;13.36;71.98
59877;BME280;45749;51.140;17.184;2023-05-23T01:59:27;99844.75;;;13.37;72.35
59877;BME280;45749;51.140;17.184;2023-05-23T02:01:52;99844.91;;;13.36;72.46
59877;BME280;45749;51.140;17.184;2023-05-23T02:04:18;99831.06;;;13.32;72.56
59877;BME280;45749;51.140;17.184;2023-05-23T02:06:43;99830.25;;;13.32;72.49
59877;BME280;45749;51.140;17.184;2023-05-23T02:09:08;99834.44;;;13.34;72.44
59877;BME280;45749;51.140;17.184;2023-05-23T02:11:34;99824.00;;;13.33;72.45
59877;BME280;45749;51.140;17.184;2023-05-23T02:13:59;99828.44;;;13.32;72.51
59877;BME280;45749;51.140;17.184;2023-05-23T02:16:25;99822.44;;;13.30;72.84
59877;BME280;45749;51.140;17.184;2023-05-23T02:18:50;99817.72;;;13.24;72.83
59877;BME280;45749;51.140;17.184;2023-05-23T02:21:17;99814.06;;;13.25;73.08
59877;BME280;45749;51.140;17.184;2023-05-23T02:23:42;99814.19;;;13.24;73.02
59877;BME280;45749;51.140;17.184;2023-05-23T02:26:08;99801.50;;;13.18;73.01
59877;BME280;45749;51.140;17.184;2023-05-23T02:28:33;99809.19;;;13.21;73.00
59877;BME280;45749;51.140;17.184;2023-05-23T02:30:58;99813.78;;;13.19;73.18
59877;BME280;45749;51.140;17.184;2023-05-23T02:33:23;99808.47;;;13.19;73.16
59877;BME280;45749;51.140;17.184;2023-05-23T02:35:49;99808.47;;;13.19;72.97
59877;BME280;45749;51.140;17.184;2023-05-23T02:38:15;99804.00;;;13.19;73.24
59877;BME280;45749;51.140;17.184;2023-05-23T02:40:40;99804.16;;;13.18;73.24
59877;BME280;45749;51.140;17.184;2023-05-23T02:43:06;99802.63;;;13.15;73.04
59877;BME280;45749;51.140;17.184;2023-05-23T02:45:31;99803.44;;;13.15;73.12
59877;BME280;45749;51.140;17.184;2023-05-23T02:47:56;99802.63;;;13.15;73.50
59877;BME280;45749;51.140;17.184;2023-05-23T02:50:22;99805.56;;;13.12;73.52
59877;BME280;45749;51.140;17.184;2023-05-23T02:52:47;99801.50;;;13.08;73.58
59877;BME280;45749;51.140;17.184;2023-05-23T02:55:12;99804.31;;;13.06;73.57
59877;BME280;45749;51.140;17.184;2023-05-23T02:57:38;99801.66;;;13.06;73.54
59877;BME280;45749;51.140;17.184;2023-05-23T03:00:03;99804.16;;;13.08;73.79
59877;BME280;45749;51.140;17.184;2023-05-23T03:02:28;99806.97;;;13.06;73.48
59877;BME280;45749;51.140;17.184;2023-05-23T03:04:54;99798.59;;;13.01;73.58
59877;BME280;45749;51.140;17.184;2023-05-23T03:07:21;99803.59;;;13.04;73.63
59877;BME280;45749;51.140;17.184;2023-05-23T03:09:46;99794.97;;;13.02;73.98
59877;BME280;45749;51.140;17.184;2023-05-23T03:12:11;99792.59;;;12.99;74.15
59877;BME280;45749;51.140;17.184;2023-05-23T03:14:37;99791.06;;;12.97;74.28
59877;BME280;45749;51.140;17.184;2023-05-23T03:17:02;99791.34;;;12.94;74.40
59877;BME280;45749;51.140;17.184;2023-05-23T03:19:28;99796.78;;;12.92;74.39
59877;BME280;45749;51.140;17.184;2023-05-23T03:21:53;99787.28;;;12.89;74.38
59877;BME280;45749;51.140;17.184;2023-05-23T03:24:18;99784.78;;;12.88;74.55
59877;BME280;45749;51.140;17.184;2023-05-23T03:26:44;99783.97;;;12.87;74.85
59877;BME280;45749;51.140;17.184;2023-05-23T03:29:09;99782.25;;;12.86;74.85
59877;BME280;45749;51.140;17.184;2023-05-23T03:31:35;99775.03;;;12.88;74.94
59877;BME280;45749;51.140;17.184;2023-05-23T03:34:01;99776.56;;;12.91;74.95
59877;BME280;45749;51.140;17.184;2023-05-23T03:36:27;99778.22;;;12.92;74.97
59877;BME280;45749;51.140;17.184;2023-05-23T03:38:52;99776.97;;;12.96;75.03
59877;BME280;45749;51.140;17.184;2023-05-23T03:41:18;99770.00;;;12.95;75.27
59877;BME280;45749;51.140;17.184;2023-05-23T03:43:43;99776.56;;;13.01;75.34
59877;BME280;45749;51.140;17.184;2023-05-23T03:46:09;99774.75;;;13.01;75.10
59877;BME280;45749;51.140;17.184;2023-05-23T03:48:34;99768.47;;;13.02;75.19
59877;BME280;45749;51.140;17.184;2023-05-23T03:51:00;99768.34;;;13.04;75.51
59877;BME280;45749;51.140;17.184;2023-05-23T03:53:25;99767.38;;;13.05;75.45
59877;BME280;45749;51.140;17.184;2023-05-23T03:55:50;99770.72;;;13.07;75.77
59877;BME280;45749;51.140;17.184;2023-05-23T03:58:19;99756.22;;;13.01;75.44
59877;BME280;45749;51.140;17.184;2023-05-23T04:00:45;99768.91;;;13.07;75.79
59877;BME280;45749;51.140;17.184;2023-05-23T04:03:10;99768.63;;;13.10;75.81
59877;BME280;45749;51.140;17.184;2023-05-23T04:05:38;99759.84;;;13.10;75.72
59877;BME280;45749;51.140;17.184;2023-05-23T04:08:03;99768.88;;;13.17;75.55
59877;BME280;45749;51.140;17.184;2023-05-23T04:10:29;99764.13;;;13.21;75.47
59877;BME280;45749;51.140;17.184;2023-05-23T04:12:54;99768.22;;;13.25;75.50
59877;BME280;45749;51.140;17.184;2023-05-23T04:15:20;99766.25;;;13.27;75.41
59877;BME280;45749;51.140;17.184;2023-05-23T04:17:46;99766.94;;;13.29;75.73
59877;BME280;45749;51.140;17.184;2023-05-23T04:20:11;99765.00;;;13.31;75.41
59877;BME280;45749;51.140;17.184;2023-05-23T04:22:37;99767.34;;;13.34;75.69
59877;BME280;45749;51.140;17.184;2023-05-23T04:25:02;99754.09;;;13.34;75.63
59877;BME280;45749;51.140;17.184;2023-05-23T04:27:28;99757.47;;;13.36;75.35
59877;BME280;45749;51.140;17.184;2023-05-23T04:29:53;99751.84;;;13.39;75.64
59877;BME280;45749;51.140;17.184;2023-05-23T04:32:20;99742.41;;;13.36;75.33
59877;BME280;45749;51.140;17.184;2023-05-23T04:34:47;99749.63;;;13.44;75.70
59877;BME280;45749;51.140;17.184;2023-05-23T04:37:12;99746.53;;;13.49;75.56
59877;BME280;45749;51.140;17.184;2023-05-23T04:39:38;99745.56;;;13.50;75.54
59877;BME280;45749;51.140;17.184;2023-05-23T04:42:04;99746.25;;;13.52;75.75
59877;BME280;45749;51.140;17.184;2023-05-23T04:44:31;99751.41;;;13.53;75.64
59877;BME280;45749;51.140;17.184;2023-05-23T04:46:57;99746.50;;;13.58;75.55
59877;BME280;45749;51.140;17.184;2023-05-23T04:49:23;99747.03;;;13.62;75.38
59877;BME280;45749;51.140;17.184;2023-05-23T04:51:48;99743.13;;;13.66;75.58
59877;BME280;45749;51.140;17.184;2023-05-23T04:54:13;99733.50;;;13.65;75.86
59877;BME280;45749;51.140;17.184;2023-05-23T04:56:39;99736.28;;;13.73;75.92
59877;BME280;45749;51.140;17.184;2023-05-23T04:59:04;99735.16;;;13.76;75.58
59877;BME280;45749;51.140;17.184;2023-05-23T05:01:30;99735.53;;;13.81;75.98
59877;BME280;45749;51.140;17.184;2023-05-23T05:03:55;99737.88;;;13.84;75.95
59877;BME280;45749;51.140;17.184;2023-05-23T05:06:22;99736.59;;;13.88;75.91
59877;BME280;45749;51.140;17.184;2023-05-23T05:08:47;99727.41;;;13.92;76.04
59877;BME280;45749;51.140;17.184;2023-05-23T05:11:12;99726.13;;;13.96;76.43
59877;BME280;45749;51.140;17.184;2023-05-23T05:13:37;99735.59;;;13.99;76.57
59877;BME280;45749;51.140;17.184;2023-05-23T05:16:03;99719.94;;;14.05;76.08
59877;BME280;45749;51.140;17.184;2023-05-23T05:18:29;99728.25;;;14.11;76.65
59877;BME280;45749;51.140;17.184;2023-05-23T05:20:55;99716.34;;;14.15;76.53
59877;BME280;45749;51.140;17.184;2023-05-23T05:23:24;99714.09;;;14.20;76.52
59877;BME280;45749;51.140;17.184;2023-05-23T05:25:49;99712.81;;;14.24;76.35
59877;BME280;45749;51.140;17.184;2023-05-23T05:28:15;99702.91;;;14.26;76.62
59877;BME280;45749;51.140;17.184;2023-05-23T05:30:40;99708.44;;;14.32;76.71
59877;BME280;45749;51.140;17.184;2023-05-23T05:33:06;99705.84;;;14.41;76.93
59877;BME280;45749;51.140;17.184;2023-05-23T05:35:32;99712.91;;;14.50;77.72
59877;BME280;45749;51.140;17.184;2023-05-23T05:37:58;99712.19;;;14.58;77.16
59877;BME280;45749;51.140;17.184;2023-05-23T05:40:23;99713.25;;;14.65;76.77
59877;BME280;45749;51.140;17.184;2023-05-23T05:42:48;99703.00;;;14.70;76.30
59877;BME280;45749;51.140;17.184;2023-05-23T05:45:14;99711.06;;;14.78;76.53
59877;BME280;45749;51.140;17.184;2023-05-23T05:47:39;99712.41;;;14.82;75.98
59877;BME280;45749;51.140;17.184;2023-05-23T05:50:06;99712.47;;;14.90;76.21
59877;BME280;45749;51.140;17.184;2023-05-23T05:52:33;99715.66;;;14.94;76.23
59877;BME280;45749;51.140;17.184;2023-05-23T05:55:03;99704.19;;;14.93;75.44
59877;BME280;45749;51.140;17.184;2023-05-23T05:57:28;99708.56;;;15.02;76.14
59877;BME280;45749;51.140;17.184;2023-05-23T05:59:53;99709.78;;;15.08;76.26
59877;BME280;45749;51.140;17.184;2023-05-23T06:02:19;99707.66;;;15.12;76.04
59877;BME280;45749;51.140;17.184;2023-05-23T06:04:44;99712.34;;;15.18;75.89
59877;BME280;45749;51.140;17.184;2023-05-23T06:07:11;99702.75;;;15.25;76.05
59877;BME280;45749;51.140;17.184;2023-05-23T06:09:36;99703.28;;;15.29;75.56
59877;BME280;45749;51.140;17.184;2023-05-23T06:12:01;99705.81;;;15.38;76.33
59877;BME280;45749;51.140;17.184;2023-05-23T06:14:27;99699.72;;;15.46;75.93
59877;BME280;45749;51.140;17.184;2023-05-23T06:16:52;99705.75;;;15.56;75.61
59877;BME280;45749;51.140;17.184;2023-05-23T06:19:17;99701.19;;;15.66;75.99
59877;BME280;45749;51.140;17.184;2023-05-23T06:21:42;99691.41;;;15.75;76.01
59877;BME280;45749;51.140;17.184;2023-05-23T06:24:08;99694.78;;;15.85;75.39
59877;BME280;45749;51.140;17.184;2023-05-23T06:26:33;99691.31;;;15.93;74.93
59877;BME280;45749;51.140;17.184;2023-05-23T06:28:58;99694.81;;;16.02;75.01
59877;BME280;45749;51.140;17.184;2023-05-23T06:31:24;99696.53;;;16.11;75.67
59877;BME280;45749;51.140;17.184;2023-05-23T06:33:49;99692.22;;;16.18;76.05
59877;BME280;45749;51.140;17.184;2023-05-23T06:36:15;99695.56;;;16.28;75.48
59877;BME280;45749;51.140;17.184;2023-05-23T06:38:40;99695.25;;;16.39;75.76
59877;BME280;45749;51.140;17.184;2023-05-23T06:41:05;99692.59;;;16.48;75.43
59877;BME280;45749;51.140;17.184;2023-05-23T06:43:31;99696.78;;;16.58;74.52
59877;BME280;45749;51.140;17.184;2023-05-23T06:45:56;99689.31;;;16.62;74.76
59877;BME280;45749;51.140;17.184;2023-05-23T06:48:21;99705.28;;;16.70;73.67
59877;BME280;45749;51.140;17.184;2023-05-23T06:50:47;99702.13;;;16.75;73.22
59877;BME280;45749;51.140;17.184;2023-05-23T06:53:12;99700.63;;;16.80;72.57
59877;BME280;45749;51.140;17.184;2023-05-23T06:55:37;99696.47;;;16.86;72.55
59877;BME280;45749;51.140;17.184;2023-05-23T06:58:03;99694.13;;;16.91;72.49
59877;BME280;45749;51.140;17.184;2023-05-23T07:00:29;99699.13;;;17.02;73.15
59877;BME280;45749;51.140;17.184;2023-05-23T07:02:55;99697.31;;;17.11;73.33
59877;BME280;45749;51.140;17.184;2023-05-23T07:05:25;99680.94;;;17.22;74.48
59877;BME280;45749;51.140;17.184;2023-05-23T07:07:51;99677.75;;;17.35;74.12
59877;BME280;45749;51.140;17.184;2023-05-23T07:10:16;99688.72;;;17.48;73.71
59877;BME280;45749;51.140;17.184;2023-05-23T07:12:43;99685.03;;;17.57;73.40
59877;BME280;45749;51.140;17.184;2023-05-23T07:15:10;99688.13;;;17.69;73.25
59877;BME280;45749;51.140;17.184;2023-05-23T07:17:35;99666.81;;;17.77;73.03
59877;BME280;45749;51.140;17.184;2023-05-23T07:20:01;99674.25;;;17.90;73.48
59877;BME280;45749;51.140;17.184;2023-05-23T07:22:26;99670.34;;;18.01;72.43
59877;BME280;45749;51.140;17.184;2023-05-23T07:24:51;99663.09;;;18.10;71.99
59877;BME280;45749;51.140;17.184;2023-05-23T07:27:16;99665.91;;;18.16;72.12
59877;BME280;45749;51.140;17.184;2023-05-23T07:29:42;99662.53;;;18.22;72.04
59877;BME280;45749;51.140;17.184;2023-05-23T07:32:08;99644.97;;;18.28;71.48
59877;BME280;45749;51.140;17.184;2023-05-23T07:34:33;99657.09;;;18.39;71.66
59877;BME280;45749;51.140;17.184;2023-05-23T07:36:58;99648.66;;;18.50;71.66
59877;BME280;45749;51.140;17.184;2023-05-23T07:39:23;99644.72;;;18.61;72.13
59877;BME280;45749;51.140;17.184;2023-05-23T07:41:49;99641.50;;;18.73;70.50
59877;BME280;45749;51.140;17.184;2023-05-23T07:44:16;99644.72;;;18.84;70.56
59877;BME280;45749;51.140;17.184;2023-05-23T07:46:42;99643.09;;;18.97;71.56
59877;BME280;45749;51.140;17.184;2023-05-23T07:49:07;99646.31;;;19.08;70.97
59877;BME280;45749;51.140;17.184;2023-05-23T07:51:32;99642.41;;;19.18;70.54
59877;BME280;45749;51.140;17.184;2023-05-23T07:53:57;99639.25;;;19.30;70.73
59877;BME280;45749;51.140;17.184;2023-05-23T07:56:23;99633.16;;;19.36;70.14
59877;BME280;45749;51.140;17.184;2023-05-23T07:58:48;99630.75;;;19.56;70.08
59877;BME280;45749;51.140;17.184;2023-05-23T08:01:13;99621.06;;;19.70;70.02
59877;BME280;45749;51.140;17.184;2023-05-23T08:03:39;99610.53;;;19.83;69.30
59877;BME280;45749;51.140;17.184;2023-05-23T08:06:04;99619.91;;;19.94;69.36
59877;BME280;45749;51.140;17.184;2023-05-23T08:08:31;99625.78;;;20.04;68.79
59877;BME280;45749;51.140;17.184;2023-05-23T08:10:57;99628.16;;;20.13;68.00
59877;BME280;45749;51.140;17.184;2023-05-23T08:13:22;99626.00;;;20.24;68.21
59877;BME280;45749;51.140;17.184;2023-05-23T08:15:47;99631.44;;;20.30;67.97
59877;BME280;45749;51.140;17.184;2023-05-23T08:18:12;99625.50;;;20.35;67.38
59877;BME280;45749;51.140;17.184;2023-05-23T08:20:38;99628.44;;;20.40;67.63
59877;BME280;45749;51.140;17.184;2023-05-23T08:23:03;99639.00;;;20.48;66.77
59877;BME280;45749;51.140;17.184;2023-05-23T08:25:28;99632.47;;;20.51;66.32
59877;BME280;45749;51.140;17.184;2023-05-23T08:27:55;99645.09;;;20.57;67.05
59877;BME280;45749;51.140;17.184;2023-05-23T08:30:22;99641.63;;;20.63;66.78
59877;BME280;45749;51.140;17.184;2023-05-23T08:32:47;99641.06;;;20.68;65.24
59877;BME280;45749;51.140;17.184;2023-05-23T08:35:13;99641.31;;;20.73;65.70
59877;BME280;45749;51.140;17.184;2023-05-23T08:37:38;99643.59;;;20.76;65.96
59877;BME280;45749;51.140;17.184;2023-05-23T08:40:06;99647.56;;;20.80;66.33
59877;BME280;45749;51.140;17.184;2023-05-23T08:42:32;99648.84;;;20.84;65.55
59877;BME280;45749;51.140;17.184;2023-05-23T08:44:58;99650.47;;;20.85;64.89
59877;BME280;45749;51.140;17.184;2023-05-23T08:47:23;99653.81;;;20.87;64.68
59877;BME280;45749;51.140;17.184;2023-05-23T08:49:51;99656.50;;;20.87;63.40
59877;BME280;45749;51.140;17.184;2023-05-23T08:52:20;99665.53;;;20.86;62.28
59877;BME280;45749;51.140;17.184;2023-05-23T08:54:49;99657.69;;;20.84;62.34
59877;BME280;45749;51.140;17.184;2023-05-23T08:57:15;99659.56;;;20.84;62.13
59877;BME280;45749;51.140;17.184;2023-05-23T08:59:41;99659.56;;;20.84;61.83
59877;BME280;45749;51.140;17.184;2023-05-23T09:02:10;99660.16;;;20.86;60.98
59877;BME280;45749;51.140;17.184;2023-05-23T09:04:38;99666.81;;;20.90;61.66
59877;BME280;45749;51.140;17.184;2023-05-23T09:07:03;99661.91;;;20.94;61.20
59877;BME280;45749;51.140;17.184;2023-05-23T09:09:29;99666.44;;;20.93;61.88
59877;BME280;45749;51.140;17.184;2023-05-23T09:11:55;99671.81;;;20.93;62.25
59877;BME280;45749;51.140;17.184;2023-05-23T09:14:23;99671.53;;;20.88;62.02
59877;BME280;45749;51.140;17.184;2023-05-23T09:16:49;99675.06;;;20.89;62.76
59877;BME280;45749;51.140;17.184;2023-05-23T09:19:14;99671.53;;;20.88;62.73
59877;BME280;45749;51.140;17.184;2023-05-23T09:21:43;99668.63;;;20.83;62.34
59877;BME280;45749;51.140;17.184;2023-05-23T09:24:10;99667.34;;;20.79;63.17
59877;BME280;45749;51.140;17.184;2023-05-23T09:26:35;99670.66;;;20.81;63.61
59877;BME280;45749;51.140;17.184;2023-05-23T09:29:04;99679.75;;;20.80;63.29
59877;BME280;45749;51.140;17.184;2023-05-23T09:31:30;99684.47;;;20.78;63.03
59877;BME280;45749;51.140;17.184;2023-05-23T09:33:56;99678.66;;;20.74;63.02
59877;BME280;45749;51.140;17.184;2023-05-23T09:36:22;99671.00;;;20.71;63.84
59877;BME280;45749;51.140;17.184;2023-05-23T09:38:47;99669.78;;;20.74;64.25
59877;BME280;45749;51.140;17.184;2023-05-23T09:41:13;99676.34;;;20.71;63.75
59877;BME280;45749;51.140;17.184;2023-05-23T09:43:39;99675.66;;;20.63;63.54
59877;BME280;45749;51.140;17.184;2023-05-23T09:46:08;99685.47;;;20.55;64.07
59877;BME280;45749;51.140;17.184;2023-05-23T09:48:33;99687.88;;;20.50;65.06
59877;BME280;45749;51.140;17.184;2023-05-23T09:51:06;99678.50;;;20.39;65.92
59877;BME280;45749;51.140;17.184;2023-05-23T09:53:31;99676.38;;;20.35;65.71
59877;BME280;45749;51.140;17.184;2023-05-23T09:56:01;99687.09;;;20.35;66.37
59877;BME280;45749;51.140;17.184;2023-05-23T09:58:27;99687.94;;;20.35;66.55
59877;BME280;45749;51.140;17.184;2023-05-23T10:00:57;99695.78;;;20.37;67.32
59877;BME280;45749;51.140;17.184;2023-05-23T10:03:33;99691.63;;;20.34;67.69
59877;BME280;45749;51.140;17.184;2023-05-23T10:05:59;99694.69;;;20.31;67.76
59877;BME280;45749;51.140;17.184;2023-05-23T10:08:42;99701.09;;;20.30;67.96
59877;BME280;45749;51.140;17.184;2023-05-23T10:13:42;99697.94;;;20.27;68.18
59877;BME280;45749;51.140;17.184;2023-05-23T10:16:22;99694.34;;;20.20;68.42
59877;BME280;45749;51.140;17.184;2023-05-23T10:18:55;99698.44;;;20.15;68.93
59877;BME280;45749;51.140;17.184;2023-05-23T10:21:43;99698.19;;;20.10;69.43
59877;BME280;45749;51.140;17.184;2023-05-23T10:24:10;99697.25;;;20.03;70.54
59877;BME280;45749;51.140;17.184;2023-05-23T10:26:36;99703.34;;;19.97;71.14
59877;BME280;45749;51.140;17.184;2023-05-23T10:29:02;99696.84;;;19.85;71.10
59877;BME280;45749;51.140;17.184;2023-05-23T10:31:28;99697.13;;;19.75;72.03
59877;BME280;45749;51.140;17.184;2023-05-23T10:34:16;99701.56;;;19.68;72.55
59877;BME280;45749;51.140;17.184;2023-05-23T10:36:59;99697.41;;;19.65;73.11
59877;BME280;45749;51.140;17.184;2023-05-23T10:45:22;99708.44;;;19.62;73.44
59877;BME280;45749;51.140;17.184;2023-05-23T10:47:50;99699.13;;;19.58;73.51
59877;BME280;45749;51.140;17.184;2023-05-23T10:50:33;99703.25;;;19.61;74.24
59877;BME280;45749;51.140;17.184;2023-05-23T10:53:03;99694.78;;;19.57;73.87
59877;BME280;45749;51.140;17.184;2023-05-23T10:55:34;99710.94;;;19.64;74.36
59877;BME280;45749;51.140;17.184;2023-05-23T10:58:10;99706.06;;;19.67;75.71
59877;BME280;45749;51.140;17.184;2023-05-23T11:00:36;99705.22;;;19.67;75.55
59877;BME280;45749;51.140;17.184;2023-05-23T11:03:04;99696.75;;;19.63;74.83
59877;BME280;45749;51.140;17.184;2023-05-23T11:05:30;99700.25;;;19.64;75.61
59877;BME280;45749;51.140;17.184;2023-05-23T11:08:11;99693.41;;;19.61;75.23
59877;BME280;45749;51.140;17.184;2023-05-23T11:10:54;99692.56;;;19.61;75.19
59877;BME280;45749;51.140;17.184;2023-05-23T11:13:21;99694.16;;;19.55;75.06
59877;BME280;45749;51.140;17.184;2023-05-23T11:15:47;99688.34;;;19.52;75.84
59877;BME280;45749;51.140;17.184;2023-05-23T11:18:42;99691.47;;;19.55;75.64
59877;BME280;45749;51.140;17.184;2023-05-23T11:21:09;99687.41;;;19.59;76.40
59877;BME280;45749;51.140;17.184;2023-05-23T11:23:41;99682.72;;;19.61;76.19
59877;BME280;45749;51.140;17.184;2023-05-23T11:26:30;99684.84;;;19.66;77.16
59877;BME280;45749;51.140;17.184;2023-05-23T11:28:56;99678.47;;;19.67;76.73
59877;BME280;45749;51.140;17.184;2023-05-23T11:31:23;99681.34;;;19.65;76.70
59877;BME280;45749;51.140;17.184;2023-05-23T11:33:51;99677.03;;;19.64;76.22
59877;BME280;45749;51.140;17.184;2023-05-23T11:36:16;99678.84;;;19.64;76.84
59877;BME280;45749;51.140;17.184;2023-05-23T11:38:42;99678.00;;;19.63;76.66
59877;BME280;45749;51.140;17.184;2023-05-23T11:41:07;99673.13;;;19.67;76.80
59877;BME280;45749;51.140;17.184;2023-05-23T11:43:32;99668.78;;;19.66;76.59
59877;BME280;45749;51.140;17.184;2023-05-23T11:46:06;99680.41;;;19.73;76.63
59877;BME280;45749;51.140;17.184;2023-05-23T11:48:32;99677.19;;;19.78;77.11
59877;BME280;45749;51.140;17.184;2023-05-23T11:50:57;99662.41;;;19.82;77.58
59877;BME280;45749;51.140;17.184;2023-05-23T11:53:25;99658.16;;;19.87;77.29
59877;BME280;45749;51.140;17.184;2023-05-23T11:55:53;99663.84;;;19.99;76.52
59877;BME280;45749;51.140;17.184;2023-05-23T11:58:27;99657.09;;;20.03;77.16
59877;BME280;45749;51.140;17.184;2023-05-23T12:01:01;99662.50;;;20.10;76.79
59877;BME280;45749;51.140;17.184;2023-05-23T12:03:27;99656.03;;;20.19;77.21
59877;BME280;45749;51.140;17.184;2023-05-23T12:05:58;99664.41;;;20.31;77.50
59877;BME280;45749;51.140;17.184;2023-05-23T12:08:25;99668.34;;;20.35;76.88
59877;BME280;45749;51.140;17.184;2023-05-23T12:10:51;99667.59;;;20.41;76.97
59877;BME280;45749;51.140;17.184;2023-05-23T12:13:18;99666.63;;;20.49;77.90
59877;BME280;45749;51.140;17.184;2023-05-23T12:15:43;99662.41;;;20.54;77.78
59877;BME280;45749;51.140;17.184;2023-05-23T12:18:10;99660.59;;;20.61;76.48
59877;BME280;45749;51.140;17.184;2023-05-23T12:20:36;99674.44;;;20.65;75.56
59877;BME280;45749;51.140;17.184;2023-05-23T12:23:04;99673.34;;;20.59;76.75
59877;BME280;45749;51.140;17.184;2023-05-23T12:25:39;99672.34;;;20.60;76.10
59877;BME280;45749;51.140;17.184;2023-05-23T12:28:05;99664.53;;;20.66;76.33
59877;BME280;45749;51.140;17.184;2023-05-23T12:30:40;99673.41;;;20.66;76.09
59877;BME280;45749;51.140;17.184;2023-05-23T12:33:07;99671.97;;;20.64;76.05
59877;BME280;45749;51.140;17.184;2023-05-23T12:35:32;99661.03;;;20.65;75.30
59877;BME280;45749;51.140;17.184;2023-05-23T12:37:58;99660.38;;;20.63;75.65
59877;BME280;45749;51.140;17.184;2023-05-23T12:40:23;99662.25;;;20.63;75.88
59877;BME280;45749;51.140;17.184;2023-05-23T12:42:53;99658.19;;;20.67;76.41
59877;BME280;45749;51.140;17.184;2023-05-23T12:45:23;99663.16;;;20.70;76.40
59877;BME280;45749;51.140;17.184;2023-05-23T12:47:49;99666.47;;;20.72;76.27
59877;BME280;45749;51.140;17.184;2023-05-23T12:50:15;99660.28;;;20.71;75.92
59877;BME280;45749;51.140;17.184;2023-05-23T12:52:41;99667.09;;;20.74;75.29
59877;BME280;45749;51.140;17.184;2023-05-23T12:55:07;99662.13;;;20.71;75.40
59877;BME280;45749;51.140;17.184;2023-05-23T12:57:34;99656.72;;;20.64;76.62
59877;BME280;45749;51.140;17.184;2023-05-23T12:59:59;99658.75;;;20.62;76.60